Richardson Springs, California
Current Conditions -  °F | °C
As of 3:50 PM on Saturday 25 Oct 2014 (Local Time) from KCIC Reporting Station
Broken Clouds Broken Clouds  
Wind Chill: 66°   Ceiling: 5000
Heat Index: 66°   Visibility: 25mi
Dew Point: 57°   Wind: 29mph
Humidity: 73%   Direction: 140°SE
Pressure: 29.97"   Gusts: 35mph
Location:  39.8244°N, 121.905°W
Report Text: KCIC 252250Z 14025G30KT 25SM SCT030 BKN050 BKN180 19/14 A2997
Loading
Personal Weather Stations






























Interactive Weather Map
Tropical Storm Tracking
New forecast layout! Learn more

10-Day Weather Forecast

Advertisements
Track Severe Weather on mobile